KR-0402 weather

Dongsam 1(il)-dong Heliport
Busan (Yeoung-do), Busan Gwang'yeogsi, South Korea

Public forecast

Using degrees Celsius for public forecast. Weather courtesy of forecast.io.

Closest aviation weather report (METAR) to Dongsam 1(il)-dong Heliport

Closest report is Gimhae International Airport, 9.4 nm (17.4 km) NW. Retrieved 2020/01/18 08:00 UTC (28 minutes ago):

RKPK 180800Z 33011KT CAVOK 09/M04 Q1017

Closest aviation forecast (TAF) to Dongsam 1(il)-dong Heliport

Closest forecast is Gimhae International Airport, 9.4 nm (17.4 km) NW. Retrieved 2020/01/18 06:00 UTC (2 hours ago):

TAF RKPK 180500Z 1806/1912 33006KT 9999 SCT040 TNM01/1821Z TX09/1906Z